Time;durP1;ratioP1;P1;durP2;ratioP2;P2;SDS_P1;SDS_P2;PMS_P1;PMS_P2;Temp;Humidity;BMP_temperature;BMP_pressure;BME280_temperature;BME280_humidity;BME280_pressure;Samples;Min_cycle;Max_cycle;Signal;HPM_P1;HPM_P2
2023/05/20 00:00:40;;;;;;;8.05;4.95;;;12.10;99.90;;;;;;5030684;28;20120;-84
2023/05/20 00:03:05;;;;;;;12.70;5.90;;;12.00;99.90;;;;;;5028668;28;20065;-87
2023/05/20 00:05:31;;;;;;;12.52;5.22;;;12.00;99.90;;;;;;5029869;28;20037;-84
2023/05/20 00:07:56;;;;;;;18.30;5.40;;;12.00;99.90;;;;;;5028170;28;20172;-86
2023/05/20 00:10:22;;;;;;;67.72;8.82;;;12.00;99.90;;;;;;5029827;28;20047;-87
2023/05/20 00:12:48;;;;;;;19.95;5.60;;;11.90;99.90;;;;;;5027524;28;20039;-88
2023/05/20 00:15:13;;;;;;;8.50;4.90;;;11.90;99.90;;;;;;5026862;28;20033;-84
2023/05/20 00:17:39;;;;;;;6.60;4.80;;;11.80;99.90;;;;;;5029000;28;20091;-84
2023/05/20 00:20:05;;;;;;;7.20;5.82;;;11.80;99.90;;;;;;5029228;28;20029;-84
2023/05/20 00:22:31;;;;;;;7.70;4.60;;;11.90;99.90;;;;;;5009493;28;20080;-86
2023/05/20 00:24:56;;;;;;;6.55;4.63;;;11.80;99.90;;;;;;5026521;28;20029;-85
2023/05/20 00:27:22;;;;;;;7.72;5.53;;;11.80;99.90;;;;;;5024053;28;20030;-87
2023/05/20 00:29:48;;;;;;;6.85;4.70;;;11.70;99.90;;;;;;5021908;28;20117;-84
2023/05/20 00:32:13;;;;;;;6.13;4.93;;;11.70;99.90;;;;;;5022528;28;20042;-84
2023/05/20 00:34:39;;;;;;;5.05;4.55;;;11.70;99.90;;;;;;5025423;28;20029;-85
2023/05/20 00:37:05;;;;;;;6.97;5.38;;;11.70;99.90;;;;;;5024031;28;20573;-85
2023/05/20 00:39:30;;;;;;;6.57;4.55;;;11.70;99.90;;;;;;5024160;28;20032;-85
2023/05/20 00:41:59;;;;;;;7.38;5.43;;;11.70;99.90;;;;;;5023455;28;20140;-85
2023/05/20 00:44:25;;;;;;;7.72;5.03;;;11.70;99.90;;;;;;5023481;28;20025;-88
2023/05/20 00:46:51;;;;;;;7.05;5.30;;;11.70;99.90;;;;;;5024171;28;20029;-88
2023/05/20 00:49:17;;;;;;;6.75;5.10;;;11.70;99.90;;;;;;5026026;28;20025;-85
2023/05/20 00:51:43;;;;;;;5.57;4.95;;;11.70;99.90;;;;;;5025788;28;20038;-88
2023/05/20 00:54:09;;;;;;;8.38;5.05;;;11.70;99.90;;;;;;5024630;28;20029;-85
2023/05/20 00:56:35;;;;;;;6.55;5.20;;;11.80;99.90;;;;;;5024202;28;20041;-85
2023/05/20 00:59:01;;;;;;;6.28;5.00;;;11.80;99.90;;;;;;5026456;28;20029;-84
2023/05/20 01:01:27;;;;;;;6.55;5.03;;;11.80;99.90;;;;;;5025980;28;20030;-86
2023/05/20 01:03:52;;;;;;;8.57;5.38;;;11.80;99.90;;;;;;5024650;28;20119;-85
2023/05/20 01:06:18;;;;;;;6.90;5.25;;;11.80;99.90;;;;;;5023588;28;20048;-94
2023/05/20 01:08:43;;;;;;;8.35;5.97;;;11.80;99.90;;;;;;5024587;28;20041;-84
2023/05/20 01:11:27;;;;;;;10.98;6.50;;;11.70;99.90;;;;;;5025886;28;20037;-87
2023/05/20 01:13:56;;;;;;;5.93;5.20;;;11.80;99.90;;;;;;5024207;28;20147;-85
2023/05/20 01:16:23;;;;;;;7.13;5.82;;;11.70;99.90;;;;;;5023016;28;20581;-87
2023/05/20 01:18:54;;;;;;;7.10;5.43;;;11.80;99.90;;;;;;5022683;28;20018;-86
2023/05/20 01:21:20;;;;;;;9.68;5.90;;;11.70;99.90;;;;;;5023290;28;20025;-86
2023/05/20 01:23:46;;;;;;;8.32;6.00;;;11.70;99.90;;;;;;5025003;28;20029;-86
2023/05/20 01:26:12;;;;;;;7.18;5.40;;;11.70;99.90;;;;;;5027053;28;20040;-85
2023/05/20 01:28:38;;;;;;;8.23;5.93;;;11.70;99.90;;;;;;5024137;28;20037;-85
2023/05/20 01:31:09;;;;;;;7.47;5.78;;;11.70;99.90;;;;;;5026885;28;20121;-85
2023/05/20 01:33:36;;;;;;;7.13;6.07;;;11.80;99.90;;;;;;5027190;28;20044;-87
2023/05/20 01:36:02;;;;;;;8.82;6.28;;;11.70;99.90;;;;;;5025293;28;20029;-84
2023/05/20 01:38:29;;;;;;;12.10;6.97;;;11.70;99.90;;;;;;5023709;28;20049;-85
2023/05/20 01:40:57;;;;;;;8.40;6.60;;;11.80;99.90;;;;;;5026408;28;20038;-85
2023/05/20 01:43:24;;;;;;;9.23;5.93;;;11.70;99.90;;;;;;5024830;28;20505;-86
2023/05/20 01:45:50;;;;;;;7.55;5.97;;;11.70;99.90;;;;;;5024053;28;20072;-85
2023/05/20 01:48:16;;;;;;;7.68;6.32;;;11.70;99.90;;;;;;5026111;28;20413;-88
2023/05/20 01:50:41;;;;;;;8.38;5.82;;;11.70;99.90;;;;;;5028065;28;20047;-84
2023/05/20 01:53:08;;;;;;;9.50;6.55;;;11.70;99.90;;;;;;5026619;28;20022;-85
2023/05/20 01:55:34;;;;;;;8.98;6.65;;;11.70;99.90;;;;;;5029181;28;20119;-85
2023/05/20 01:58:00;;;;;;;10.13;6.82;;;11.70;99.90;;;;;;5028487;28;20048;-85
2023/05/20 02:00:25;;;;;;;8.23;7.13;;;11.70;99.90;;;;;;5029320;28;20025;-85
2023/05/20 02:02:51;;;;;;;9.57;6.60;;;11.70;99.90;;;;;;5028019;28;20061;-87
2023/05/20 02:05:16;;;;;;;8.52;7.53;;;11.70;99.90;;;;;;5028214;28;20025;-84
2023/05/20 02:07:42;;;;;;;9.65;7.03;;;11.70;99.90;;;;;;5011216;28;20041;-87
2023/05/20 02:10:08;;;;;;;8.63;7.10;;;11.70;99.90;;;;;;5028642;28;20045;-87
2023/05/20 02:12:34;;;;;;;20.50;9.20;;;11.60;99.90;;;;;;5026394;28;20033;-87
2023/05/20 02:14:59;;;;;;;8.55;7.10;;;11.60;99.90;;;;;;5029013;28;20032;-87
2023/05/20 02:17:25;;;;;;;9.60;7.03;;;11.60;99.90;;;;;;5028539;28;20049;-84
2023/05/20 02:19:51;;;;;;;8.13;6.72;;;11.60;99.90;;;;;;5028381;28;20017;-87
2023/05/20 02:22:17;;;;;;;8.52;6.95;;;11.60;99.90;;;;;;5027631;28;20030;-86
2023/05/20 02:24:43;;;;;;;9.55;7.20;;;11.60;99.90;;;;;;5027293;28;20060;-85
2023/05/20 02:27:09;;;;;;;8.35;7.05;;;11.60;99.90;;;;;;5025897;28;20033;-84
2023/05/20 02:29:35;;;;;;;9.10;6.78;;;11.60;99.90;;;;;;5028352;28;20493;-86
2023/05/20 02:32:01;;;;;;;9.35;7.13;;;11.60;99.90;;;;;;5026194;28;20034;-87
2023/05/20 02:34:28;;;;;;;9.82;7.72;;;11.60;99.90;;;;;;5024904;28;20025;-84
2023/05/20 02:36:55;;;;;;;9.60;8.10;;;11.60;99.90;;;;;;5024201;28;20073;-84
2023/05/20 02:39:21;;;;;;;9.80;7.70;;;11.60;99.90;;;;;;5025133;28;20075;-85
2023/05/20 02:41:46;;;;;;;12.55;7.88;;;11.60;99.90;;;;;;5022829;28;20057;-87
2023/05/20 02:44:12;;;;;;;7.82;6.93;;;11.50;99.90;;;;;;5025756;28;20034;-86
2023/05/20 02:46:37;;;;;;;12.18;7.43;;;11.60;99.90;;;;;;5024438;28;20118;-85
2023/05/20 02:49:03;;;;;;;11.75;8.43;;;11.50;99.90;;;;;;5023191;28;20048;-85
2023/05/20 02:51:30;;;;;;;10.73;8.30;;;11.50;99.90;;;;;;5026291;28;20048;-86
2023/05/20 02:53:56;;;;;;;9.75;8.10;;;11.50;99.90;;;;;;5027353;28;20029;-85
2023/05/20 02:56:23;;;;;;;9.80;8.40;;;11.50;99.90;;;;;;5028490;28;20095;-86
2023/05/20 02:58:49;;;;;;;9.70;7.97;;;11.50;99.90;;;;;;5027444;28;20041;-85
2023/05/20 03:01:14;;;;;;;12.65;8.05;;;11.50;99.90;;;;;;5029132;28;20109;-87
2023/05/20 03:03:40;;;;;;;11.43;8.85;;;11.50;99.90;;;;;;5011851;28;20025;-84
2023/05/20 03:06:06;;;;;;;11.13;8.63;;;11.50;99.90;;;;;;5029657;28;20470;-87
2023/05/20 03:08:33;;;;;;;10.57;8.43;;;11.40;99.90;;;;;;5031696;28;20059;-88
2023/05/20 03:10:59;;;;;;;9.88;8.85;;;11.50;99.90;;;;;;5029235;28;20042;-85
2023/05/20 03:13:24;;;;;;;10.02;8.23;;;11.40;99.90;;;;;;5028652;28;20395;-87
2023/05/20 03:15:50;;;;;;;11.82;9.18;;;11.50;99.90;;;;;;5029784;28;20120;-84
2023/05/20 03:18:16;;;;;;;10.20;8.23;;;11.40;99.90;;;;;;5031012;28;20033;-87
2023/05/20 03:20:41;;;;;;;10.35;7.90;;;11.40;99.90;;;;;;5031570;28;20026;-89
2023/05/20 03:23:08;;;;;;;11.18;8.55;;;11.50;99.90;;;;;;5026869;28;20033;-86
2023/05/20 03:25:33;;;;;;;10.50;9.02;;;11.40;99.90;;;;;;5027133;28;20022;-88
2023/05/20 03:27:59;;;;;;;11.52;8.55;;;11.40;99.90;;;;;;5024983;28;20026;-84
2023/05/20 03:30:28;;;;;;;11.23;9.13;;;11.40;99.90;;;;;;5025510;28;20045;-85
2023/05/20 03:32:58;;;;;;;11.80;9.68;;;11.40;99.90;;;;;;5024375;28;20037;-84
2023/05/20 03:35:24;;;;;;;12.15;10.18;;;11.40;99.90;;;;;;5027563;28;20467;-86
2023/05/20 03:37:51;;;;;;;34.63;10.98;;;11.40;99.90;;;;;;5027192;28;20029;-85
2023/05/20 03:40:19;;;;;;;19.58;11.15;;;11.40;99.90;;;;;;5024411;28;20109;-84
2023/05/20 03:42:45;;;;;;;16.08;10.25;;;11.40;99.90;;;;;;5023325;28;20087;-85
2023/05/20 03:45:11;;;;;;;13.27;11.13;;;11.40;99.90;;;;;;5024712;28;20080;-87
2023/05/20 03:47:36;;;;;;;14.25;10.45;;;11.40;99.90;;;;;;5026247;28;20093;-84
2023/05/20 03:50:02;;;;;;;14.15;11.18;;;11.40;99.90;;;;;;5025797;28;20428;-88
2023/05/20 03:52:28;;;;;;;13.85;10.70;;;11.30;99.90;;;;;;5026225;28;20025;-85
2023/05/20 03:54:53;;;;;;;19.27;12.40;;;11.30;99.90;;;;;;5006858;28;20037;-85
2023/05/20 03:57:19;;;;;;;17.33;12.48;;;11.40;99.90;;;;;;5023831;28;20113;-85
2023/05/20 03:59:45;;;;;;;19.08;11.35;;;11.40;99.90;;;;;;5026258;28;20021;-85
2023/05/20 04:02:10;;;;;;;16.58;11.02;;;11.40;99.90;;;;;;5009550;28;20029;-88
2023/05/20 04:04:36;;;;;;;17.10;11.75;;;11.40;99.90;;;;;;5025510;28;20033;-86
2023/05/20 04:07:03;;;;;;;14.15;10.95;;;11.40;99.90;;;;;;5024448;28;20684;-85
2023/05/20 04:09:29;;;;;;;14.70;12.05;;;11.40;99.90;;;;;;5025911;28;20034;-85
2023/05/20 04:11:55;;;;;;;14.90;11.45;;;11.30;99.90;;;;;;5025317;28;20045;-89
2023/05/20 04:14:21;;;;;;;14.00;12.02;;;11.40;99.90;;;;;;5029264;28;20355;-85
2023/05/20 04:16:47;;;;;;;19.40;12.57;;;11.30;99.90;;;;;;5028232;28;20079;-88
2023/05/20 04:19:12;;;;;;;16.27;12.48;;;11.40;99.90;;;;;;5027897;28;20374;-85
2023/05/20 04:21:38;;;;;;;17.25;13.13;;;11.30;99.90;;;;;;5029781;28;20434;-86
2023/05/20 04:24:04;;;;;;;17.48;12.77;;;11.30;99.90;;;;;;5031921;28;20053;-86
2023/05/20 04:26:30;;;;;;;15.15;13.07;;;11.40;99.90;;;;;;5031144;28;20424;-86
2023/05/20 04:28:57;;;;;;;15.68;13.10;;;11.30;99.90;;;;;;5031525;28;20068;-85
2023/05/20 04:31:25;;;;;;;14.82;13.00;;;11.40;99.90;;;;;;5028891;28;20083;-86
2023/05/20 04:33:54;;;;;;;15.05;11.93;;;11.40;99.90;;;;;;5028948;28;20030;-86
2023/05/20 04:36:20;;;;;;;14.90;13.15;;;11.30;99.90;;;;;;5028680;28;20037;-87
2023/05/20 04:38:47;;;;;;;14.95;12.75;;;11.40;99.90;;;;;;5029114;28;20034;-85
2023/05/20 04:41:12;;;;;;;16.00;13.45;;;11.40;99.90;;;;;;5033222;28;20033;-84
2023/05/20 04:43:39;;;;;;;19.80;15.02;;;11.40;99.90;;;;;;5029967;28;20025;-85
2023/05/20 04:46:05;;;;;;;19.67;14.95;;;11.40;99.90;;;;;;5033063;28;20033;-86
2023/05/20 04:48:31;;;;;;;17.52;14.85;;;11.50;99.90;;;;;;5030691;28;20493;-85
2023/05/20 04:50:57;;;;;;;23.77;17.17;;;11.50;99.90;;;;;;5031049;28;20486;-85
2023/05/20 04:53:22;;;;;;;24.65;17.40;;;11.50;99.90;;;;;;5033145;28;20056;-86
2023/05/20 04:55:52;;;;;;;23.38;16.40;;;11.50;99.90;;;;;;5030981;28;20029;-87
2023/05/20 04:58:18;;;;;;;21.67;15.85;;;11.50;99.90;;;;;;5031294;28;20037;-84
2023/05/20 05:00:44;;;;;;;23.48;15.75;;;11.50;99.90;;;;;;5028643;28;20513;-84
2023/05/20 05:03:14;;;;;;;19.70;15.27;;;11.50;99.90;;;;;;5031288;28;20025;-85
2023/05/20 05:05:39;;;;;;;24.15;16.55;;;11.60;99.90;;;;;;5029387;28;20026;-86
2023/05/20 05:08:05;;;;;;;23.65;17.30;;;11.60;99.90;;;;;;5027381;28;20032;-89
2023/05/20 05:10:32;;;;;;;26.08;17.88;;;11.60;99.90;;;;;;5027903;28;20033;-85
2023/05/20 05:12:57;;;;;;;20.92;16.08;;;11.60;99.90;;;;;;5033559;28;20030;-86
2023/05/20 05:15:24;;;;;;;22.73;16.30;;;11.70;99.90;;;;;;5034947;28;20454;-85
2023/05/20 05:17:50;;;;;;;24.52;17.52;;;11.70;99.90;;;;;;5038491;28;20052;-87
2023/05/20 05:20:16;;;;;;;24.70;19.10;;;11.70;99.90;;;;;;5040262;28;20033;-85
2023/05/20 05:22:42;;;;;;;23.67;18.77;;;11.80;99.90;;;;;;5038565;28;21611;-85
2023/05/20 05:25:08;;;;;;;27.95;19.67;;;11.80;99.90;;;;;;5038082;28;20071;-85
2023/05/20 05:27:34;;;;;;;31.77;20.05;;;11.80;99.90;;;;;;5035754;28;20036;-87
2023/05/20 05:30:03;;;;;;;25.23;19.15;;;11.80;99.90;;;;;;5034948;28;20026;-85
2023/05/20 05:32:28;;;;;;;35.70;25.45;;;11.80;99.90;;;;;;5036886;28;20431;-85
2023/05/20 05:34:54;;;;;;;36.90;26.48;;;11.80;99.90;;;;;;5036281;28;20089;-85
2023/05/20 05:37:20;;;;;;;27.45;19.98;;;11.80;99.90;;;;;;5037878;28;20022;-85
2023/05/20 05:39:46;;;;;;;29.58;21.25;;;11.80;99.90;;;;;;5031072;28;20014;-88
2023/05/20 05:42:11;;;;;;;24.95;19.15;;;11.90;99.90;;;;;;5031701;28;20033;-86
2023/05/20 05:44:41;;;;;;;31.77;24.05;;;11.90;99.90;;;;;;5032031;28;20032;-86
2023/05/20 05:47:06;;;;;;;23.77;18.40;;;11.90;99.90;;;;;;5032258;28;20359;-85
2023/05/20 05:49:33;;;;;;;29.50;21.58;;;12.00;99.90;;;;;;5031688;28;20029;-85
2023/05/20 05:51:59;;;;;;;26.65;19.27;;;12.00;99.90;;;;;;5015040;28;20535;-88
2023/05/20 05:54:25;;;;;;;24.70;18.10;;;12.00;99.90;;;;;;5032013;28;20104;-88
2023/05/20 05:56:51;;;;;;;28.00;19.92;;;12.10;99.90;;;;;;5027803;28;20037;-88
2023/05/20 05:59:16;;;;;;;26.27;21.30;;;12.10;99.90;;;;;;5031468;28;20041;-89
2023/05/20 06:01:42;;;;;;;29.75;21.55;;;12.10;99.90;;;;;;5034731;28;20029;-87
2023/05/20 06:04:08;;;;;;;30.63;21.70;;;12.10;99.90;;;;;;5033118;28;20029;-87
2023/05/20 06:06:33;;;;;;;29.23;20.60;;;12.10;99.90;;;;;;5026076;28;20226;-88
2023/05/20 06:08:59;;;;;;;28.67;20.38;;;12.10;99.90;;;;;;5033355;28;20029;-85
2023/05/20 06:11:26;;;;;;;28.77;20.15;;;12.10;99.90;;;;;;5031211;28;20560;-87
2023/05/20 06:13:51;;;;;;;22.92;17.67;;;12.10;99.90;;;;;;5026036;28;20100;-85
2023/05/20 06:16:17;;;;;;;24.88;18.92;;;12.10;99.90;;;;;;5030830;28;20026;-85
2023/05/20 06:18:45;;;;;;;26.67;19.40;;;12.10;99.90;;;;;;5025918;28;20034;-87
2023/05/20 06:21:11;;;;;;;27.88;19.58;;;12.20;99.90;;;;;;5031638;28;20017;-92
2023/05/20 06:23:36;;;;;;;24.23;17.95;;;12.30;99.90;;;;;;5029810;28;20035;-86
2023/05/20 06:26:02;;;;;;;26.50;17.40;;;12.40;99.90;;;;;;5032962;28;20022;-87
2023/05/20 06:28:29;;;;;;;26.83;18.98;;;12.50;99.90;;;;;;5031379;28;20059;-85
2023/05/20 06:30:55;;;;;;;29.80;20.23;;;12.60;99.90;;;;;;5033172;28;20045;-88
2023/05/20 06:33:25;;;;;;;27.10;19.00;;;12.70;99.90;;;;;;5034866;28;20021;-86
2023/05/20 06:35:52;;;;;;;28.27;20.00;;;12.70;99.90;;;;;;5032264;28;20030;-87
2023/05/20 06:38:18;;;;;;;25.15;19.83;;;12.80;99.90;;;;;;5032110;28;20044;-84
2023/05/20 06:40:44;;;;;;;26.80;19.38;;;12.80;99.90;;;;;;5030331;28;20030;-86
2023/05/20 06:43:09;;;;;;;30.50;19.88;;;12.80;99.90;;;;;;5035298;28;20554;-85
2023/05/20 06:45:36;;;;;;;26.05;19.50;;;12.90;99.90;;;;;;5036200;28;20022;-85
2023/05/20 06:48:02;;;;;;;23.73;18.23;;;13.00;99.90;;;;;;5037203;28;20025;-85
2023/05/20 06:50:32;;;;;;;24.70;18.20;;;13.10;99.90;;;;;;5032918;28;20405;-87
2023/05/20 06:53:09;;;;;;;26.30;18.88;;;13.10;99.90;;;;;;5029587;28;20052;-86
2023/05/20 06:55:40;;;;;;;25.48;18.08;;;13.00;99.90;;;;;;5010612;28;20126;-85
2023/05/20 07:00:34;;;;;;;25.45;19.25;;;13.10;99.90;;;;;;5031471;22;20497;-86
2023/05/20 07:05:27;;;;;;;26.67;19.92;;;13.00;99.90;;;;;;5040485;23;20401;-85
2023/05/20 07:07:56;;;;;;;23.17;18.30;;;13.00;99.90;;;;;;5023829;28;20045;-86
2023/05/20 07:12:57;;;;;;;25.23;18.90;;;13.00;99.90;;;;;;5028640;22;20498;-85
2023/05/20 07:15:23;;;;;;;23.27;17.73;;;13.00;99.90;;;;;;5022596;28;20018;-91
2023/05/20 07:17:56;;;;;;;26.65;18.00;;;13.10;99.90;;;;;;5023096;28;20025;-85
2023/05/20 07:20:25;;;;;;;20.63;16.23;;;13.10;99.90;;;;;;5020984;28;20112;-86
2023/05/20 07:23:05;;;;;;;22.42;16.35;;;13.20;99.90;;;;;;5020415;28;20034;-86
2023/05/20 07:25:33;;;;;;;24.42;15.95;;;13.40;99.90;;;;;;5008650;28;20017;-85
2023/05/20 07:30:25;;;;;;;21.88;15.40;;;13.70;99.90;;;;;;5068083;22;20059;-86
2023/05/20 07:32:53;;;;;;;18.35;13.85;;;13.80;99.90;;;;;;5042013;28;20068;-88
2023/05/20 07:35:27;;;;;;;22.23;16.25;;;13.80;99.90;;;;;;5040629;28;20379;-90
2023/05/20 07:37:53;;;;;;;20.83;15.68;;;14.00;99.90;;;;;;5020732;28;20091;-92
2023/05/20 07:40:19;;;;;;;22.20;15.15;;;14.00;99.90;;;;;;5029398;28;21579;-88
2023/05/20 07:42:44;;;;;;;18.67;14.15;;;14.00;99.90;;;;;;5020170;28;20065;-85
2023/05/20 07:45:10;;;;;;;17.67;14.02;;;14.10;99.90;;;;;;5027287;28;20025;-87
2023/05/20 07:47:36;;;;;;;16.83;13.63;;;14.20;99.90;;;;;;5022038;28;20043;-86
2023/05/20 07:50:01;;;;;;;17.27;13.90;;;14.40;99.90;;;;;;5024425;28;20030;-92
2023/05/20 07:52:27;;;;;;;20.05;14.68;;;14.40;99.90;;;;;;5024568;28;20041;-93
2023/05/20 07:54:52;;;;;;;17.98;13.82;;;14.50;99.90;;;;;;5025309;28;20039;-86
2023/05/20 07:57:18;;;;;;;21.83;13.13;;;14.60;99.90;;;;;;5027812;28;20769;-89
2023/05/20 07:59:43;;;;;;;16.60;12.93;;;14.60;99.90;;;;;;5021262;28;20576;-86
2023/05/20 08:02:09;;;;;;;18.45;14.05;;;14.60;99.90;;;;;;5015610;28;20821;-86
2023/05/20 08:04:35;;;;;;;17.13;13.75;;;14.60;99.90;;;;;;5013537;28;20120;-87
2023/05/20 08:07:01;;;;;;;18.35;13.82;;;14.60;99.90;;;;;;5016288;28;20038;-86
2023/05/20 08:09:26;;;;;;;14.27;12.43;;;14.60;99.90;;;;;;5016030;28;20029;-87
2023/05/20 08:11:52;;;;;;;17.08;13.40;;;14.50;99.90;;;;;;5015928;28;20048;-86
2023/05/20 08:14:17;;;;;;;22.67;15.30;;;14.50;99.90;;;;;;5011983;28;20025;-86
2023/05/20 08:16:43;;;;;;;16.48;12.38;;;14.70;99.90;;;;;;5015813;28;20033;-87
2023/05/20 08:19:09;;;;;;;16.27;14.15;;;14.80;99.90;;;;;;5017984;28;20037;-87
2023/05/20 08:21:34;;;;;;;18.58;14.10;;;15.00;99.90;;;;;;5017852;28;21396;-88
2023/05/20 08:24:00;;;;;;;19.58;14.25;;;15.10;99.90;;;;;;5013861;28;20056;-87
2023/05/20 08:26:26;;;;;;;17.75;14.80;;;15.10;99.90;;;;;;5018879;28;20128;-88
2023/05/20 08:28:51;;;;;;;18.75;14.70;;;15.00;99.90;;;;;;5018455;28;20040;-87
2023/05/20 08:31:17;;;;;;;15.63;13.38;;;15.00;99.90;;;;;;5018959;28;20144;-88
2023/05/20 08:33:43;;;;;;;17.08;13.57;;;15.10;99.90;;;;;;5010418;28;20026;-87
2023/05/20 08:36:08;;;;;;;14.05;12.13;;;15.10;99.90;;;;;;5014637;28;20383;-87
2023/05/20 08:38:35;;;;;;;12.95;11.18;;;15.20;99.90;;;;;;5014510;28;21455;-77
2023/05/20 08:41:00;;;;;;;12.10;10.32;;;15.30;99.90;;;;;;5013992;28;20857;-77
2023/05/20 08:43:26;;;;;;;13.85;10.63;;;15.50;99.90;;;;;;5020160;28;20025;-77
2023/05/20 08:45:52;;;;;;;10.13;9.00;;;15.70;99.90;;;;;;5018328;28;20774;-77
2023/05/20 08:48:18;;;;;;;11.07;9.75;;;15.80;99.90;;;;;;5018961;28;20036;-78
2023/05/20 08:50:50;;;;;;;11.15;9.63;;;16.00;99.90;;;;;;5018130;28;20037;-76
2023/05/20 08:53:15;;;;;;;12.30;9.05;;;16.10;99.90;;;;;;5020654;28;20036;-80
2023/05/20 08:55:45;;;;;;;12.90;9.98;;;16.20;99.90;;;;;;5021516;28;20509;-78
2023/05/20 08:58:11;;;;;;;8.60;7.70;;;16.40;99.90;;;;;;5021569;28;21377;-78
2023/05/20 09:00:37;;;;;;;9.75;8.45;;;16.50;99.90;;;;;;5021418;28;20044;-81
2023/05/20 09:03:04;;;;;;;11.13;8.45;;;16.60;99.90;;;;;;5019499;28;20091;-77
2023/05/20 09:05:30;;;;;;;9.50;8.52;;;16.80;99.90;;;;;;5017693;28;20030;-76
2023/05/20 09:08:06;;;;;;;8.95;8.02;;;16.90;99.90;;;;;;5021228;28;20117;-78
2023/05/20 09:10:33;;;;;;;10.23;8.85;;;16.90;99.90;;;;;;5023794;28;20506;-78
2023/05/20 09:13:03;;;;;;;11.18;8.40;;;17.10;99.90;;;;;;5024426;28;20167;-78
2023/05/20 09:15:32;;;;;;;9.70;8.00;;;17.10;99.90;;;;;;5022909;28;20092;-77
2023/05/20 09:18:02;;;;;;;8.75;7.70;;;17.20;99.90;;;;;;5025450;28;20881;-79
2023/05/20 09:20:29;;;;;;;9.05;7.60;;;17.20;99.90;;;;;;5028430;28;20025;-79
2023/05/20 09:22:59;;;;;;;8.77;7.60;;;17.30;99.90;;;;;;5032815;28;20161;-80
2023/05/20 09:25:25;;;;;;;8.93;6.60;;;17.40;99.90;;;;;;5032256;28;20029;-79
2023/05/20 09:27:50;;;;;;;7.60;6.43;;;17.50;99.90;;;;;;5032120;28;20163;-80
2023/05/20 09:30:20;;;;;;;10.55;8.85;;;17.70;99.90;;;;;;5027232;28;20037;-79
2023/05/20 09:32:55;;;;;;;10.80;7.57;;;17.80;99.90;;;;;;5032227;28;20430;-87
2023/05/20 09:35:23;;;;;;;8.02;7.18;;;18.00;99.90;;;;;;5027054;28;20030;-89
2023/05/20 09:37:53;;;;;;;9.95;7.53;;;18.10;99.90;;;;;;5025715;28;20033;-87
2023/05/20 09:42:56;;;;;;;8.77;6.60;;;18.60;99.90;;;;;;5117954;22;20053;-88
2023/05/20 09:45:23;;;;;;;7.47;6.43;;;18.60;99.90;;;;;;5032108;28;20029;-87
2023/05/20 09:50:15;;;;;;;6.63;5.63;;;18.90;99.90;;;;;;5056348;22;20075;-85
2023/05/20 09:52:45;;;;;;;13.23;6.15;;;19.00;99.90;;;;;;5047918;28;20038;-86
2023/05/20 09:55:14;;;;;;;6.78;5.50;;;19.10;99.90;;;;;;5043843;28;20053;-86
2023/05/20 09:57:47;;;;;;;9.88;6.43;;;19.20;99.90;;;;;;5039544;28;20449;-85
2023/05/20 10:00:16;;;;;;;7.40;5.63;;;19.40;99.90;;;;;;5040618;28;20029;-85
2023/05/20 10:02:54;;;;;;;6.65;5.93;;;19.50;99.90;;;;;;5041114;28;20111;-86
2023/05/20 10:05:26;;;;;;;7.35;5.18;;;19.70;99.90;;;;;;5049207;28;20029;-86
2023/05/20 10:08:07;;;;;;;6.63;5.28;;;19.90;99.90;;;;;;5045094;28;20486;-88
2023/05/20 10:10:46;;;;;;;7.32;5.22;;;20.00;99.90;;;;;;5046258;28;20025;-85
2023/05/20 10:13:23;;;;;;;7.43;5.60;;;20.20;99.90;;;;;;5043657;28;20037;-87
2023/05/20 10:16:31;;;;;;;;;;;;;;;;;;;;;
2023/05/20 10:19:33;;;;;;;6.75;4.88;;;20.90;99.90;;;;;;5037161;28;20494;-89
2023/05/20 10:22:07;;;;;;;6.07;4.10;;;21.40;99.90;;;;;;5039009;28;20170;-86
2023/05/20 10:24:36;;;;;;;6.82;4.18;;;21.80;99.90;;;;;;5042840;28;20029;-87
2023/05/20 10:27:07;;;;;;;6.38;4.25;;;22.00;99.90;;;;;;5045543;28;20032;-87
2023/05/20 10:29:43;;;;;;;5.75;4.25;;;22.00;99.90;;;;;;5037739;28;20021;-86
2023/05/20 10:32:09;;;;;;;4.75;3.78;;;21.90;99.90;;;;;;5045502;28;20117;-86
2023/05/20 10:34:45;;;;;;;6.60;3.83;;;21.80;99.90;;;;;;5044406;28;20049;-91
2023/05/20 10:37:25;;;;;;;7.70;3.78;;;21.80;99.90;;;;;;5043153;28;20029;-90
2023/05/20 10:39:50;;;;;;;4.90;3.95;;;21.90;99.90;;;;;;5044350;28;20036;-87
2023/05/20 10:42:28;;;;;;;4.35;3.85;;;22.10;99.90;;;;;;5042526;28;20028;-86
2023/05/20 10:44:53;;;;;;;4.72;3.45;;;22.00;99.90;;;;;;5037968;28;20045;-86
2023/05/20 10:47:19;;;;;;;6.43;3.75;;;22.00;99.90;;;;;;5041634;28;20597;-86
2023/05/20 10:49:46;;;;;;;4.68;3.70;;;22.00;99.90;;;;;;5039778;28;20987;-87
2023/05/20 10:52:16;;;;;;;4.85;3.97;;;22.30;99.90;;;;;;5039451;28;20041;-85
2023/05/20 10:57:08;;;;;;;6.28;3.78;;;22.80;99.90;;;;;;5012677;22;20430;-89
2023/05/20 10:59:35;;;;;;;7.45;4.53;;;22.60;99.90;;;;;;5007620;28;20029;-89
2023/05/20 11:02:01;;;;;;;6.75;4.22;;;22.50;99.90;;;;;;5004959;28;20149;-87
2023/05/20 11:04:28;;;;;;;6.38;4.18;;;22.40;99.90;;;;;;4996884;28;20070;-85
2023/05/20 11:06:54;;;;;;;5.53;3.72;;;22.40;99.90;;;;;;4994989;28;20038;-87
2023/05/20 11:09:21;;;;;;;5.80;4.10;;;22.80;99.90;;;;;;4996644;28;20038;-87
2023/05/20 11:16:37;;;;;;;5.15;4.03;;;23.20;99.90;;;;;;4998017;22;20053;-88
2023/05/20 11:19:02;;;;;;;8.85;4.00;;;23.00;99.90;;;;;;4994536;28;20062;-88
2023/05/20 11:21:28;;;;;;;6.53;4.13;;;23.00;99.90;;;;;;4992611;28;20109;-87
2023/05/20 11:23:54;;;;;;;4.72;4.00;;;22.90;99.90;;;;;;4989586;28;20142;-87
2023/05/20 11:28:45;;;;;;;4.78;3.70;;;23.20;99.90;;;;;;5030051;22;20049;-86
2023/05/20 11:31:10;;;;;;;4.75;3.58;;;23.40;99.90;;;;;;5026636;28;20401;-86
2023/05/20 11:33:41;;;;;;;5.53;3.70;;;23.70;99.90;;;;;;5025554;28;20022;-86
2023/05/20 11:36:08;;;;;;;5.50;3.45;;;24.10;99.90;;;;;;5024847;28;20037;-86
2023/05/20 11:38:35;;;;;;;6.07;3.20;;;24.30;99.90;;;;;;5021772;28;20367;-85
2023/05/20 11:41:00;;;;;;;6.30;3.10;;;24.50;99.90;;;;;;5023574;28;20030;-85
2023/05/20 11:43:26;;;;;;;3.95;2.80;;;24.70;99.90;;;;;;5017933;28;20028;-87
2023/05/20 11:45:54;;;;;;;4.80;3.47;;;24.80;99.90;;;;;;5019662;28;20508;-86
2023/05/20 11:48:20;;;;;;;4.82;2.92;;;24.80;99.90;;;;;;5020984;28;20470;-85
2023/05/20 11:50:47;;;;;;;4.95;3.00;;;25.00;99.90;;;;;;5018870;28;20059;-89
2023/05/20 11:53:19;;;;;;;3.85;2.90;;;25.20;99.90;;;;;;5016693;28;20030;-85
2023/05/20 11:55:54;;;;;;;3.28;2.97;;;25.40;99.90;;;;;;5018637;28;20109;-86
2023/05/20 11:58:25;;;;;;;5.78;3.28;;;25.70;99.90;;;;;;5007128;28;20034;-87
2023/05/20 12:00:51;;;;;;;3.88;3.08;;;25.40;99.90;;;;;;5005911;28;21495;-85
2023/05/20 12:03:17;;;;;;;3.97;2.95;;;25.30;99.90;;;;;;5006315;28;20056;-89
2023/05/20 12:05:43;;;;;;;3.50;2.85;;;25.30;99.90;;;;;;5003780;28;20389;-88
2023/05/20 12:08:08;;;;;;;5.95;3.00;;;25.10;99.90;;;;;;5009325;28;20038;-86
2023/05/20 12:10:36;;;;;;;5.88;3.20;;;25.10;99.90;;;;;;5007251;28;20292;-89
2023/05/20 12:13:02;;;;;;;5.07;3.15;;;25.30;99.90;;;;;;5010103;28;20042;-86
2023/05/20 12:15:29;;;;;;;3.78;3.00;;;25.60;99.90;;;;;;5010917;28;20032;-89
2023/05/20 12:17:54;;;;;;;5.18;3.70;;;25.80;99.90;;;;;;5009589;28;20862;-88
2023/05/20 12:20:23;;;;;;;3.80;3.40;;;26.10;99.90;;;;;;5010694;28;20088;-87
2023/05/20 12:22:49;;;;;;;5.13;3.65;;;25.70;99.90;;;;;;5008474;28;21187;-86
2023/05/20 12:25:17;;;;;;;5.50;3.10;;;25.40;99.90;;;;;;5005220;28;20038;-94
2023/05/20 12:27:46;;;;;;;5.80;3.33;;;25.20;99.90;;;;;;5017872;28;20049;-89
2023/05/20 12:30:16;;;;;;;4.28;3.17;;;25.20;99.90;;;;;;5012141;28;20037;-87
2023/05/20 12:32:42;;;;;;;5.43;3.63;;;25.40;99.90;;;;;;5012861;28;20052;-91
2023/05/20 12:35:09;;;;;;;4.70;3.40;;;25.30;99.90;;;;;;5010746;28;20038;-89
2023/05/20 12:37:36;;;;;;;4.93;3.88;;;25.50;99.90;;;;;;5016736;28;20029;-90
2023/05/20 12:40:06;;;;;;;4.90;3.80;;;25.40;99.90;;;;;;5009529;28;20532;-90
2023/05/20 12:42:35;;;;;;;8.85;3.70;;;25.50;99.90;;;;;;5012072;28;20053;-90
2023/05/20 12:45:01;;;;;;;5.95;4.00;;;25.60;99.90;;;;;;5016901;28;20413;-94
2023/05/20 12:47:26;;;;;;;5.65;3.55;;;25.50;99.90;;;;;;5014056;28;20026;-87
2023/05/20 12:49:52;;;;;;;6.47;3.65;;;25.60;99.90;;;;;;5012231;28;20049;-86
2023/05/20 12:52:17;;;;;;;5.88;3.40;;;25.60;99.90;;;;;;5008952;28;20034;-88
2023/05/20 12:54:43;;;;;;;5.00;4.05;;;25.70;99.90;;;;;;5004467;28;20018;-78
2023/05/20 12:57:09;;;;;;;6.65;4.28;;;25.70;99.90;;;;;;5001435;28;20038;-77
2023/05/20 12:59:34;;;;;;;5.68;3.70;;;25.80;99.90;;;;;;4999463;28;20030;-76
2023/05/20 13:02:00;;;;;;;4.05;3.47;;;25.60;99.90;;;;;;5000667;28;20034;-75